sensor_id;sensor_type;location;lat;lon;timestamp;P1;durP1;ratioP1;P2;durP2;ratioP2
14599;SDS011;7386;45.586;12.854;2023-08-21T00:04:26;18.10;;;16.40;;
14599;SDS011;7386;45.586;12.854;2023-08-21T00:06:54;18.77;;;16.88;;
14599;SDS011;7386;45.586;12.854;2023-08-21T00:09:23;19.83;;;16.38;;
14599;SDS011;7386;45.586;12.854;2023-08-21T00:11:53;18.10;;;16.30;;
14599;SDS011;7386;45.586;12.854;2023-08-21T00:14:21;18.58;;;16.67;;
14599;SDS011;7386;45.586;12.854;2023-08-21T00:16:50;18.67;;;16.85;;
14599;SDS011;7386;45.586;12.854;2023-08-21T00:19:19;18.77;;;16.92;;
14599;SDS011;7386;45.586;12.854;2023-08-21T00:21:47;18.25;;;16.55;;
14599;SDS011;7386;45.586;12.854;2023-08-21T00:24:16;18.02;;;16.33;;
14599;SDS011;7386;45.586;12.854;2023-08-21T00:26:44;18.42;;;16.73;;
14599;SDS011;7386;45.586;12.854;2023-08-21T00:29:14;18.45;;;16.73;;
14599;SDS011;7386;45.586;12.854;2023-08-21T00:31:42;18.85;;;17.15;;
14599;SDS011;7386;45.586;12.854;2023-08-21T00:34:11;18.70;;;16.98;;
14599;SDS011;7386;45.586;12.854;2023-08-21T00:36:39;18.77;;;17.00;;
14599;SDS011;7386;45.586;12.854;2023-08-21T00:39:08;18.38;;;16.67;;
14599;SDS011;7386;45.586;12.854;2023-08-21T00:41:36;19.75;;;17.85;;
14599;SDS011;7386;45.586;12.854;2023-08-21T00:44:05;19.15;;;17.15;;
14599;SDS011;7386;45.586;12.854;2023-08-21T00:46:35;19.25;;;17.45;;
14599;SDS011;7386;45.586;12.854;2023-08-21T00:49:04;18.50;;;16.75;;
14599;SDS011;7386;45.586;12.854;2023-08-21T00:51:33;20.25;;;18.35;;
14599;SDS011;7386;45.586;12.854;2023-08-21T00:54:01;19.35;;;17.38;;
14599;SDS011;7386;45.586;12.854;2023-08-21T00:56:30;19.50;;;17.50;;
14599;SDS011;7386;45.586;12.854;2023-08-21T00:58:59;18.98;;;17.17;;
14599;SDS011;7386;45.586;12.854;2023-08-21T01:01:27;19.52;;;17.05;;
14599;SDS011;7386;45.586;12.854;2023-08-21T01:03:58;21.10;;;17.15;;
14599;SDS011;7386;45.586;12.854;2023-08-21T01:06:26;18.73;;;16.92;;
14599;SDS011;7386;45.586;12.854;2023-08-21T01:08:57;20.10;;;18.00;;
14599;SDS011;7386;45.586;12.854;2023-08-21T01:11:26;19.55;;;17.58;;
14599;SDS011;7386;45.586;12.854;2023-08-21T01:14:01;18.80;;;17.00;;
14599;SDS011;7386;45.586;12.854;2023-08-21T01:16:31;18.85;;;16.95;;
14599;SDS011;7386;45.586;12.854;2023-08-21T01:19:01;18.02;;;16.33;;
14599;SDS011;7386;45.586;12.854;2023-08-21T01:21:31;19.65;;;17.75;;
14599;SDS011;7386;45.586;12.854;2023-08-21T01:24:01;19.63;;;17.80;;
14599;SDS011;7386;45.586;12.854;2023-08-21T01:26:30;19.38;;;17.52;;
14599;SDS011;7386;45.586;12.854;2023-08-21T01:28:58;19.00;;;16.65;;
14599;SDS011;7386;45.586;12.854;2023-08-21T01:31:28;19.95;;;18.05;;
14599;SDS011;7386;45.586;12.854;2023-08-21T01:34:00;19.73;;;17.67;;
14599;SDS011;7386;45.586;12.854;2023-08-21T01:36:30;19.00;;;17.10;;
14599;SDS011;7386;45.586;12.854;2023-08-21T01:38:59;19.35;;;17.38;;
14599;SDS011;7386;45.586;12.854;2023-08-21T01:41:29;19.85;;;17.83;;
14599;SDS011;7386;45.586;12.854;2023-08-21T01:43:57;19.52;;;17.52;;
14599;SDS011;7386;45.586;12.854;2023-08-21T01:46:26;18.92;;;17.13;;
14599;SDS011;7386;45.586;12.854;2023-08-21T01:48:54;18.77;;;16.92;;
14599;SDS011;7386;45.586;12.854;2023-08-21T01:51:23;19.13;;;17.23;;
14599;SDS011;7386;45.586;12.854;2023-08-21T01:53:51;18.92;;;16.95;;
14599;SDS011;7386;45.586;12.854;2023-08-21T01:56:20;19.55;;;17.60;;
14599;SDS011;7386;45.586;12.854;2023-08-21T01:58:51;19.42;;;17.42;;
14599;SDS011;7386;45.586;12.854;2023-08-21T02:01:19;18.80;;;17.02;;
14599;SDS011;7386;45.586;12.854;2023-08-21T02:03:49;19.67;;;17.65;;
14599;SDS011;7386;45.586;12.854;2023-08-21T02:06:17;18.98;;;17.15;;
14599;SDS011;7386;45.586;12.854;2023-08-21T02:08:45;18.48;;;16.77;;
14599;SDS011;7386;45.586;12.854;2023-08-21T02:11:14;19.08;;;17.17;;
14599;SDS011;7386;45.586;12.854;2023-08-21T02:13:42;20.25;;;18.13;;
14599;SDS011;7386;45.586;12.854;2023-08-21T02:16:12;19.30;;;17.50;;
14599;SDS011;7386;45.586;12.854;2023-08-21T02:18:41;19.38;;;17.33;;
14599;SDS011;7386;45.586;12.854;2023-08-21T02:21:09;19.85;;;17.92;;
14599;SDS011;7386;45.586;12.854;2023-08-21T02:23:38;18.92;;;16.92;;
14599;SDS011;7386;45.586;12.854;2023-08-21T02:26:06;19.80;;;17.85;;
14599;SDS011;7386;45.586;12.854;2023-08-21T02:28:35;18.85;;;17.15;;
14599;SDS011;7386;45.586;12.854;2023-08-21T02:31:03;19.65;;;17.67;;
14599;SDS011;7386;45.586;12.854;2023-08-21T02:33:33;19.83;;;17.58;;
14599;SDS011;7386;45.586;12.854;2023-08-21T02:36:02;19.20;;;17.30;;
14599;SDS011;7386;45.586;12.854;2023-08-21T02:38:30;18.92;;;17.13;;
14599;SDS011;7386;45.586;12.854;2023-08-21T02:40:59;19.55;;;17.60;;
14599;SDS011;7386;45.586;12.854;2023-08-21T02:43:27;19.33;;;17.42;;
14599;SDS011;7386;45.586;12.854;2023-08-21T02:45:56;20.40;;;18.17;;
14599;SDS011;7386;45.586;12.854;2023-08-21T02:48:24;20.35;;;17.50;;
14599;SDS011;7386;45.586;12.854;2023-08-21T02:50:54;20.15;;;18.25;;
14599;SDS011;7386;45.586;12.854;2023-08-21T02:53:22;20.58;;;18.40;;
14599;SDS011;7386;45.586;12.854;2023-08-21T02:55:51;20.17;;;18.13;;
14599;SDS011;7386;45.586;12.854;2023-08-21T02:58:20;19.45;;;17.42;;
14599;SDS011;7386;45.586;12.854;2023-08-21T03:00:48;20.40;;;18.33;;
14599;SDS011;7386;45.586;12.854;2023-08-21T03:03:17;19.85;;;17.80;;
14599;SDS011;7386;45.586;12.854;2023-08-21T03:05:47;19.70;;;17.63;;
14599;SDS011;7386;45.586;12.854;2023-08-21T03:08:16;20.40;;;18.30;;
14599;SDS011;7386;45.586;12.854;2023-08-21T03:10:45;19.40;;;17.55;;
14599;SDS011;7386;45.586;12.854;2023-08-21T03:13:13;19.77;;;17.63;;
14599;SDS011;7386;45.586;12.854;2023-08-21T03:15:45;19.15;;;17.08;;
14599;SDS011;7386;45.586;12.854;2023-08-21T03:18:14;19.58;;;17.58;;
14599;SDS011;7386;45.586;12.854;2023-08-21T03:20:44;21.17;;;18.83;;
14599;SDS011;7386;45.586;12.854;2023-08-21T03:23:13;20.38;;;18.23;;
14599;SDS011;7386;45.586;12.854;2023-08-21T03:25:42;20.50;;;18.35;;
14599;SDS011;7386;45.586;12.854;2023-08-21T03:28:11;21.55;;;19.25;;
14599;SDS011;7386;45.586;12.854;2023-08-21T03:30:39;22.20;;;18.17;;
14599;SDS011;7386;45.586;12.854;2023-08-21T03:33:08;19.02;;;17.02;;
14599;SDS011;7386;45.586;12.854;2023-08-21T03:35:37;19.30;;;17.50;;
14599;SDS011;7386;45.586;12.854;2023-08-21T03:38:05;19.52;;;17.55;;
14599;SDS011;7386;45.586;12.854;2023-08-21T03:40:34;19.20;;;17.40;;
14599;SDS011;7386;45.586;12.854;2023-08-21T03:43:03;19.45;;;17.45;;
14599;SDS011;7386;45.586;12.854;2023-08-21T03:45:32;18.88;;;16.90;;
14599;SDS011;7386;45.586;12.854;2023-08-21T03:48:00;19.38;;;17.00;;
14599;SDS011;7386;45.586;12.854;2023-08-21T03:50:29;18.77;;;17.02;;
14599;SDS011;7386;45.586;12.854;2023-08-21T03:52:57;19.02;;;17.13;;
14599;SDS011;7386;45.586;12.854;2023-08-21T03:55:26;19.17;;;17.15;;
14599;SDS011;7386;45.586;12.854;2023-08-21T03:57:55;19.45;;;17.45;;
14599;SDS011;7386;45.586;12.854;2023-08-21T04:00:24;19.85;;;17.52;;
14599;SDS011;7386;45.586;12.854;2023-08-21T04:02:53;18.88;;;17.08;;
14599;SDS011;7386;45.586;12.854;2023-08-21T04:05:22;19.08;;;17.13;;
14599;SDS011;7386;45.586;12.854;2023-08-21T04:07:50;19.08;;;17.27;;
14599;SDS011;7386;45.586;12.854;2023-08-21T04:10:19;19.70;;;17.70;;
14599;SDS011;7386;45.586;12.854;2023-08-21T04:12:47;18.92;;;17.10;;
14599;SDS011;7386;45.586;12.854;2023-08-21T04:15:16;22.40;;;18.25;;
14599;SDS011;7386;45.586;12.854;2023-08-21T04:17:46;17.92;;;16.13;;
14599;SDS011;7386;45.586;12.854;2023-08-21T04:20:14;19.48;;;17.17;;
14599;SDS011;7386;45.586;12.854;2023-08-21T04:22:43;18.83;;;16.92;;
14599;SDS011;7386;45.586;12.854;2023-08-21T04:25:11;19.02;;;17.08;;
14599;SDS011;7386;45.586;12.854;2023-08-21T04:27:39;19.45;;;17.55;;
14599;SDS011;7386;45.586;12.854;2023-08-21T04:30:08;18.85;;;17.05;;
14599;SDS011;7386;45.586;12.854;2023-08-21T04:32:37;18.77;;;16.90;;
14599;SDS011;7386;45.586;12.854;2023-08-21T04:35:08;18.42;;;16.65;;
14599;SDS011;7386;45.586;12.854;2023-08-21T04:37:37;19.15;;;17.23;;
14599;SDS011;7386;45.586;12.854;2023-08-21T04:40:06;18.38;;;16.60;;
14599;SDS011;7386;45.586;12.854;2023-08-21T04:42:35;19.08;;;17.15;;
14599;SDS011;7386;45.586;12.854;2023-08-21T04:45:05;18.42;;;16.38;;
14599;SDS011;7386;45.586;12.854;2023-08-21T04:47:33;18.15;;;16.25;;
14599;SDS011;7386;45.586;12.854;2023-08-21T04:50:02;17.98;;;16.08;;
14599;SDS011;7386;45.586;12.854;2023-08-21T04:52:32;17.70;;;15.90;;
14599;SDS011;7386;45.586;12.854;2023-08-21T04:55:00;18.33;;;16.42;;
14599;SDS011;7386;45.586;12.854;2023-08-21T04:57:29;17.65;;;15.95;;
14599;SDS011;7386;45.586;12.854;2023-08-21T04:59:58;19.58;;;15.95;;
14599;SDS011;7386;45.586;12.854;2023-08-21T05:02:26;17.27;;;15.68;;
14599;SDS011;7386;45.586;12.854;2023-08-21T05:04:55;17.63;;;15.77;;
14599;SDS011;7386;45.586;12.854;2023-08-21T05:07:23;17.80;;;16.00;;
14599;SDS011;7386;45.586;12.854;2023-08-21T05:09:59;17.83;;;16.02;;
14599;SDS011;7386;45.586;12.854;2023-08-21T05:12:28;17.92;;;16.23;;
14599;SDS011;7386;45.586;12.854;2023-08-21T05:14:56;17.58;;;15.80;;
14599;SDS011;7386;45.586;12.854;2023-08-21T05:17:25;18.52;;;16.60;;
14599;SDS011;7386;45.586;12.854;2023-08-21T05:19:54;17.13;;;15.43;;
14599;SDS011;7386;45.586;12.854;2023-08-21T05:22:22;17.63;;;15.95;;
14599;SDS011;7386;45.586;12.854;2023-08-21T05:24:50;16.92;;;15.23;;
14599;SDS011;7386;45.586;12.854;2023-08-21T05:27:20;17.45;;;15.75;;
14599;SDS011;7386;45.586;12.854;2023-08-21T05:29:49;17.20;;;15.50;;
14599;SDS011;7386;45.586;12.854;2023-08-21T05:32:17;17.20;;;15.35;;
14599;SDS011;7386;45.586;12.854;2023-08-21T05:34:46;17.50;;;15.80;;
14599;SDS011;7386;45.586;12.854;2023-08-21T05:37:14;16.40;;;14.77;;
14599;SDS011;7386;45.586;12.854;2023-08-21T05:39:43;17.05;;;15.25;;
14599;SDS011;7386;45.586;12.854;2023-08-21T05:42:11;17.52;;;15.70;;
14599;SDS011;7386;45.586;12.854;2023-08-21T05:44:41;16.77;;;15.07;;
14599;SDS011;7386;45.586;12.854;2023-08-21T05:47:10;17.20;;;15.43;;
14599;SDS011;7386;45.586;12.854;2023-08-21T05:49:38;17.02;;;15.23;;
14599;SDS011;7386;45.586;12.854;2023-08-21T05:52:08;15.82;;;14.30;;
14599;SDS011;7386;45.586;12.854;2023-08-21T05:54:36;14.13;;;11.57;;
14599;SDS011;7386;45.586;12.854;2023-08-21T05:57:05;11.82;;;10.63;;
14599;SDS011;7386;45.586;12.854;2023-08-21T05:59:34;10.30;;;9.27;;
14599;SDS011;7386;45.586;12.854;2023-08-21T06:02:04;10.52;;;9.52;;
14599;SDS011;7386;45.586;12.854;2023-08-21T06:04:33;9.65;;;8.75;;
14599;SDS011;7386;45.586;12.854;2023-08-21T06:07:02;9.52;;;8.63;;
14599;SDS011;7386;45.586;12.854;2023-08-21T06:09:30;10.98;;;9.70;;
14599;SDS011;7386;45.586;12.854;2023-08-21T06:12:00;11.02;;;9.93;;
14599;SDS011;7386;45.586;12.854;2023-08-21T06:14:29;9.82;;;8.93;;
14599;SDS011;7386;45.586;12.854;2023-08-21T06:16:57;9.48;;;8.57;;
14599;SDS011;7386;45.586;12.854;2023-08-21T06:19:27;9.43;;;8.52;;
14599;SDS011;7386;45.586;12.854;2023-08-21T06:21:56;10.40;;;9.38;;
14599;SDS011;7386;45.586;12.854;2023-08-21T06:24:25;9.35;;;8.45;;
14599;SDS011;7386;45.586;12.854;2023-08-21T06:26:53;8.90;;;8.05;;
14599;SDS011;7386;45.586;12.854;2023-08-21T06:29:21;9.20;;;8.40;;
14599;SDS011;7386;45.586;12.854;2023-08-21T06:31:50;9.32;;;8.35;;
14599;SDS011;7386;45.586;12.854;2023-08-21T06:34:18;9.45;;;8.13;;
14599;SDS011;7386;45.586;12.854;2023-08-21T06:36:48;9.20;;;8.30;;
14599;SDS011;7386;45.586;12.854;2023-08-21T06:39:17;8.70;;;7.90;;
14599;SDS011;7386;45.586;12.854;2023-08-21T06:41:45;8.63;;;7.82;;
14599;SDS011;7386;45.586;12.854;2023-08-21T06:44:14;8.82;;;7.93;;
14599;SDS011;7386;45.586;12.854;2023-08-21T06:46:42;8.77;;;7.97;;
14599;SDS011;7386;45.586;12.854;2023-08-21T06:49:11;9.43;;;8.48;;
14599;SDS011;7386;45.586;12.854;2023-08-21T06:51:39;9.60;;;8.70;;
14599;SDS011;7386;45.586;12.854;2023-08-21T06:54:09;8.73;;;7.93;;
14599;SDS011;7386;45.586;12.854;2023-08-21T06:56:38;8.73;;;7.93;;
14599;SDS011;7386;45.586;12.854;2023-08-21T06:59:06;8.93;;;7.97;;
14599;SDS011;7386;45.586;12.854;2023-08-21T07:01:35;8.65;;;7.85;;
14599;SDS011;7386;45.586;12.854;2023-08-21T07:04:04;8.68;;;7.88;;
14599;SDS011;7386;45.586;12.854;2023-08-21T07:06:32;8.95;;;8.15;;
14599;SDS011;7386;45.586;12.854;2023-08-21T07:09:01;12.15;;;10.27;;
14599;SDS011;7386;45.586;12.854;2023-08-21T07:11:31;11.32;;;10.02;;
14599;SDS011;7386;45.586;12.854;2023-08-21T07:14:00;11.30;;;10.18;;
14599;SDS011;7386;45.586;12.854;2023-08-21T07:16:29;14.55;;;11.38;;
14599;SDS011;7386;45.586;12.854;2023-08-21T07:18:58;12.60;;;10.80;;
14599;SDS011;7386;45.586;12.854;2023-08-21T07:21:26;13.98;;;12.00;;
14599;SDS011;7386;45.586;12.854;2023-08-21T07:23:59;11.65;;;10.45;;
14599;SDS011;7386;45.586;12.854;2023-08-21T07:26:31;13.13;;;11.07;;
14599;SDS011;7386;45.586;12.854;2023-08-21T07:29:00;12.30;;;11.18;;
14599;SDS011;7386;45.586;12.854;2023-08-21T07:31:30;11.23;;;9.77;;
14599;SDS011;7386;45.586;12.854;2023-08-21T07:33:59;11.35;;;10.25;;
14599;SDS011;7386;45.586;12.854;2023-08-21T07:36:27;11.70;;;10.60;;
14599;SDS011;7386;45.586;12.854;2023-08-21T07:38:56;13.82;;;10.85;;
14599;SDS011;7386;45.586;12.854;2023-08-21T07:41:24;12.55;;;11.30;;
14599;SDS011;7386;45.586;12.854;2023-08-21T07:43:54;13.05;;;11.80;;
14599;SDS011;7386;45.586;12.854;2023-08-21T07:46:23;13.50;;;12.00;;
14599;SDS011;7386;45.586;12.854;2023-08-21T07:48:52;14.18;;;12.73;;
14599;SDS011;7386;45.586;12.854;2023-08-21T07:51:21;16.60;;;13.02;;
14599;SDS011;7386;45.586;12.854;2023-08-21T07:53:50;18.42;;;13.52;;
14599;SDS011;7386;45.586;12.854;2023-08-21T07:56:18;13.80;;;12.40;;
14599;SDS011;7386;45.586;12.854;2023-08-21T07:58:47;13.13;;;11.75;;
14599;SDS011;7386;45.586;12.854;2023-08-21T08:01:17;14.20;;;12.10;;
14599;SDS011;7386;45.586;12.854;2023-08-21T08:03:47;14.15;;;12.52;;
14599;SDS011;7386;45.586;12.854;2023-08-21T08:06:16;13.23;;;11.93;;
14599;SDS011;7386;45.586;12.854;2023-08-21T08:08:45;15.15;;;12.95;;
14599;SDS011;7386;45.586;12.854;2023-08-21T08:11:14;14.13;;;12.18;;
14599;SDS011;7386;45.586;12.854;2023-08-21T08:13:42;13.52;;;12.13;;
14599;SDS011;7386;45.586;12.854;2023-08-21T08:16:11;16.05;;;11.57;;
14599;SDS011;7386;45.586;12.854;2023-08-21T08:18:41;13.35;;;11.68;;
14599;SDS011;7386;45.586;12.854;2023-08-21T08:21:09;12.40;;;11.10;;
14599;SDS011;7386;45.586;12.854;2023-08-21T08:23:38;13.32;;;12.00;;
14599;SDS011;7386;45.586;12.854;2023-08-21T08:26:06;13.48;;;12.07;;
14599;SDS011;7386;45.586;12.854;2023-08-21T08:28:35;13.82;;;12.23;;
14599;SDS011;7386;45.586;12.854;2023-08-21T08:31:03;13.18;;;11.20;;
14599;SDS011;7386;45.586;12.854;2023-08-21T08:33:32;12.18;;;11.07;;
14599;SDS011;7386;45.586;12.854;2023-08-21T08:36:02;12.57;;;11.38;;
14599;SDS011;7386;45.586;12.854;2023-08-21T08:38:30;12.98;;;11.70;;
14599;SDS011;7386;45.586;12.854;2023-08-21T08:40:59;13.90;;;11.20;;
14599;SDS011;7386;45.586;12.854;2023-08-21T08:43:29;12.68;;;11.48;;
14599;SDS011;7386;45.586;12.854;2023-08-21T08:45:58;12.20;;;11.05;;
14599;SDS011;7386;45.586;12.854;2023-08-21T08:48:27;12.57;;;11.27;;
14599;SDS011;7386;45.586;12.854;2023-08-21T08:50:56;12.27;;;10.55;;
14599;SDS011;7386;45.586;12.854;2023-08-21T08:53:26;11.77;;;10.57;;
14599;SDS011;7386;45.586;12.854;2023-08-21T08:55:55;11.70;;;10.50;;
14599;SDS011;7386;45.586;12.854;2023-08-21T08:58:24;10.73;;;9.63;;
14599;SDS011;7386;45.586;12.854;2023-08-21T09:00:53;11.70;;;10.35;;
14599;SDS011;7386;45.586;12.854;2023-08-21T09:03:21;11.50;;;10.15;;
14599;SDS011;7386;45.586;12.854;2023-08-21T09:05:50;10.77;;;9.68;;
14599;SDS011;7386;45.586;12.854;2023-08-21T09:08:18;10.77;;;9.68;;
14599;SDS011;7386;45.586;12.854;2023-08-21T09:10:49;13.25;;;10.02;;
14599;SDS011;7386;45.586;12.854;2023-08-21T09:13:18;11.73;;;10.63;;
14599;SDS011;7386;45.586;12.854;2023-08-21T09:15:51;11.38;;;10.27;;
14599;SDS011;7386;45.586;12.854;2023-08-21T09:18:21;11.35;;;10.15;;
14599;SDS011;7386;45.586;12.854;2023-08-21T09:20:50;10.95;;;9.90;;
14599;SDS011;7386;45.586;12.854;2023-08-21T09:23:19;11.57;;;10.38;;
14599;SDS011;7386;45.586;12.854;2023-08-21T09:25:49;14.52;;;11.07;;
14599;SDS011;7386;45.586;12.854;2023-08-21T09:28:18;12.38;;;10.35;;
14599;SDS011;7386;45.586;12.854;2023-08-21T09:30:48;10.82;;;9.82;;
14599;SDS011;7386;45.586;12.854;2023-08-21T09:33:17;11.93;;;10.25;;
14599;SDS011;7386;45.586;12.854;2023-08-21T09:35:47;14.05;;;10.25;;
14599;SDS011;7386;45.586;12.854;2023-08-21T09:38:16;12.05;;;10.85;;
14599;SDS011;7386;45.586;12.854;2023-08-21T09:40:51;11.60;;;10.07;;
14599;SDS011;7386;45.586;12.854;2023-08-21T09:43:20;11.48;;;10.27;;
14599;SDS011;7386;45.586;12.854;2023-08-21T09:45:50;10.77;;;9.65;;
14599;SDS011;7386;45.586;12.854;2023-08-21T09:48:19;11.30;;;9.95;;
14599;SDS011;7386;45.586;12.854;2023-08-21T09:50:50;11.07;;;9.30;;
14599;SDS011;7386;45.586;12.854;2023-08-21T09:53:19;10.63;;;9.50;;
14599;SDS011;7386;45.586;12.854;2023-08-21T09:55:48;11.00;;;9.90;;
14599;SDS011;7386;45.586;12.854;2023-08-21T09:58:22;11.13;;;10.02;;
14599;SDS011;7386;45.586;12.854;2023-08-21T10:00:51;12.90;;;10.02;;
14599;SDS011;7386;45.586;12.854;2023-08-21T10:03:20;11.27;;;9.18;;
14599;SDS011;7386;45.586;12.854;2023-08-21T10:05:49;10.70;;;9.43;;
14599;SDS011;7386;45.586;12.854;2023-08-21T10:08:25;11.13;;;10.13;;
14599;SDS011;7386;45.586;12.854;2023-08-21T10:10:54;10.23;;;9.23;;
14599;SDS011;7386;45.586;12.854;2023-08-21T10:13:24;9.43;;;8.45;;
14599;SDS011;7386;45.586;12.854;2023-08-21T10:15:53;12.68;;;9.35;;
14599;SDS011;7386;45.586;12.854;2023-08-21T10:18:22;11.82;;;9.10;;
14599;SDS011;7386;45.586;12.854;2023-08-21T10:20:51;10.15;;;9.10;;
14599;SDS011;7386;45.586;12.854;2023-08-21T10:23:23;10.73;;;9.52;;
14599;SDS011;7386;45.586;12.854;2023-08-21T10:25:55;10.07;;;9.02;;
14599;SDS011;7386;45.586;12.854;2023-08-21T10:28:42;11.20;;;8.95;;
14599;SDS011;7386;45.586;12.854;2023-08-21T10:31:27;10.90;;;9.27;;
14599;SDS011;7386;45.586;12.854;2023-08-21T10:33:56;12.23;;;8.85;;
14599;SDS011;7386;45.586;12.854;2023-08-21T10:36:37;12.40;;;9.50;;
14599;SDS011;7386;45.586;12.854;2023-08-21T10:39:12;12.85;;;8.65;;
14599;SDS011;7386;45.586;12.854;2023-08-21T10:41:41;12.15;;;9.77;;
14599;SDS011;7386;45.586;12.854;2023-08-21T10:44:11;11.57;;;9.63;;
14599;SDS011;7386;45.586;12.854;2023-08-21T10:46:49;11.45;;;9.55;;
14599;SDS011;7386;45.586;12.854;2023-08-21T10:49:18;10.18;;;9.13;;
14599;SDS011;7386;45.586;12.854;2023-08-21T10:51:46;10.15;;;8.95;;
14599;SDS011;7386;45.586;12.854;2023-08-21T10:54:17;11.35;;;9.02;;
14599;SDS011;7386;45.586;12.854;2023-08-21T10:56:46;10.25;;;9.25;;
14599;SDS011;7386;45.586;12.854;2023-08-21T10:59:16;10.10;;;9.15;;
14599;SDS011;7386;45.586;12.854;2023-08-21T11:01:44;11.68;;;10.20;;
14599;SDS011;7386;45.586;12.854;2023-08-21T11:04:13;11.45;;;10.35;;
14599;SDS011;7386;45.586;12.854;2023-08-21T11:06:41;10.90;;;9.90;;
14599;SDS011;7386;45.586;12.854;2023-08-21T11:09:12;9.68;;;8.70;;
14599;SDS011;7386;45.586;12.854;2023-08-21T11:11:43;9.73;;;8.73;;
14599;SDS011;7386;45.586;12.854;2023-08-21T11:14:11;10.27;;;8.73;;
14599;SDS011;7386;45.586;12.854;2023-08-21T11:16:41;10.07;;;8.90;;
14599;SDS011;7386;45.586;12.854;2023-08-21T11:19:10;8.23;;;7.43;;
14599;SDS011;7386;45.586;12.854;2023-08-21T11:21:39;9.48;;;8.48;;
14599;SDS011;7386;45.586;12.854;2023-08-21T11:24:07;8.68;;;7.78;;
14599;SDS011;7386;45.586;12.854;2023-08-21T11:26:36;8.98;;;8.05;;
14599;SDS011;7386;45.586;12.854;2023-08-21T11:29:04;8.18;;;7.25;;
14599;SDS011;7386;45.586;12.854;2023-08-21T11:31:33;7.80;;;7.00;;
14599;SDS011;7386;45.586;12.854;2023-08-21T11:34:02;8.48;;;7.57;;
14599;SDS011;7386;45.586;12.854;2023-08-21T11:36:48;8.45;;;7.38;;
14599;SDS011;7386;45.586;12.854;2023-08-21T11:39:17;8.32;;;7.50;;
14599;SDS011;7386;45.586;12.854;2023-08-21T11:41:54;9.55;;;8.65;;
14599;SDS011;7386;45.586;12.854;2023-08-21T11:44:23;11.82;;;10.32;;
14599;SDS011;7386;45.586;12.854;2023-08-21T11:46:52;10.65;;;9.25;;
14599;SDS011;7386;45.586;12.854;2023-08-21T11:49:22;8.68;;;7.88;;
14599;SDS011;7386;45.586;12.854;2023-08-21T11:51:50;10.55;;;9.30;;
14599;SDS011;7386;45.586;12.854;2023-08-21T11:54:19;10.82;;;9.35;;
14599;SDS011;7386;45.586;12.854;2023-08-21T11:56:47;10.38;;;9.38;;
14599;SDS011;7386;45.586;12.854;2023-08-21T11:59:21;10.38;;;9.27;;
14599;SDS011;7386;45.586;12.854;2023-08-21T12:01:50;12.25;;;10.40;;
14599;SDS011;7386;45.586;12.854;2023-08-21T12:04:19;11.07;;;9.73;;
14599;SDS011;7386;45.586;12.854;2023-08-21T12:06:49;9.52;;;8.52;;
14599;SDS011;7386;45.586;12.854;2023-08-21T12:09:17;12.85;;;10.48;;
14599;SDS011;7386;45.586;12.854;2023-08-21T12:11:46;11.82;;;10.63;;
14599;SDS011;7386;45.586;12.854;2023-08-21T12:14:14;10.93;;;9.90;;
14599;SDS011;7386;45.586;12.854;2023-08-21T12:16:43;12.13;;;11.00;;
14599;SDS011;7386;45.586;12.854;2023-08-21T12:19:11;13.00;;;11.73;;
14599;SDS011;7386;45.586;12.854;2023-08-21T12:21:40;11.85;;;10.68;;
14599;SDS011;7386;45.586;12.854;2023-08-21T12:24:10;10.23;;;9.23;;
14599;SDS011;7386;45.586;12.854;2023-08-21T12:26:39;10.88;;;9.77;;
14599;SDS011;7386;45.586;12.854;2023-08-21T12:29:16;11.80;;;10.60;;
14599;SDS011;7386;45.586;12.854;2023-08-21T12:31:44;9.63;;;8.73;;
14599;SDS011;7386;45.586;12.854;2023-08-21T12:34:13;11.63;;;9.65;;
14599;SDS011;7386;45.586;12.854;2023-08-21T12:36:42;10.43;;;9.43;;
14599;SDS011;7386;45.586;12.854;2023-08-21T12:39:11;9.10;;;8.25;;
14599;SDS011;7386;45.586;12.854;2023-08-21T12:41:42;10.57;;;8.90;;
14599;SDS011;7386;45.586;12.854;2023-08-21T12:44:11;9.75;;;8.73;;
14599;SDS011;7386;45.586;12.854;2023-08-21T12:46:39;9.25;;;8.25;;
14599;SDS011;7386;45.586;12.854;2023-08-21T12:49:08;10.07;;;8.98;;
14599;SDS011;7386;45.586;12.854;2023-08-21T12:51:37;11.35;;;10.27;;
14599;SDS011;7386;45.586;12.854;2023-08-21T12:54:06;11.77;;;10.65;;
14599;SDS011;7386;45.586;12.854;2023-08-21T12:56:37;11.27;;;10.27;;
14599;SDS011;7386;45.586;12.854;2023-08-21T12:59:06;11.35;;;10.25;;
14599;SDS011;7386;45.586;12.854;2023-08-21T13:01:34;11.93;;;10.75;;
14599;SDS011;7386;45.586;12.854;2023-08-21T13:04:04;12.95;;;10.50;;
14599;SDS011;7386;45.586;12.854;2023-08-21T13:06:32;13.32;;;10.27;;
14599;SDS011;7386;45.586;12.854;2023-08-21T13:09:01;11.00;;;9.98;;
14599;SDS011;7386;45.586;12.854;2023-08-21T13:11:33;11.80;;;10.35;;
14599;SDS011;7386;45.586;12.854;2023-08-21T13:14:03;13.20;;;9.88;;
14599;SDS011;7386;45.586;12.854;2023-08-21T13:16:31;10.60;;;9.50;;
14599;SDS011;7386;45.586;12.854;2023-08-21T13:19:00;10.73;;;9.63;;
14599;SDS011;7386;45.586;12.854;2023-08-21T13:21:28;10.80;;;9.75;;
14599;SDS011;7386;45.586;12.854;2023-08-21T13:23:57;12.70;;;10.60;;
14599;SDS011;7386;45.586;12.854;2023-08-21T13:26:28;12.32;;;11.02;;
14599;SDS011;7386;45.586;12.854;2023-08-21T13:28:57;11.80;;;10.63;;
14599;SDS011;7386;45.586;12.854;2023-08-21T13:31:28;14.30;;;10.93;;
14599;SDS011;7386;45.586;12.854;2023-08-21T13:33:56;18.10;;;11.10;;
14599;SDS011;7386;45.586;12.854;2023-08-21T13:36:25;11.57;;;10.43;;
14599;SDS011;7386;45.586;12.854;2023-08-21T13:38:55;12.93;;;10.77;;
14599;SDS011;7386;45.586;12.854;2023-08-21T13:41:24;15.18;;;11.95;;
14599;SDS011;7386;45.586;12.854;2023-08-21T13:43:52;13.45;;;10.25;;
14599;SDS011;7386;45.586;12.854;2023-08-21T13:46:21;11.90;;;10.32;;
14599;SDS011;7386;45.586;12.854;2023-08-21T13:48:51;13.07;;;11.10;;
14599;SDS011;7386;45.586;12.854;2023-08-21T13:51:19;11.68;;;10.32;;
14599;SDS011;7386;45.586;12.854;2023-08-21T13:53:48;12.77;;;10.68;;
14599;SDS011;7386;45.586;12.854;2023-08-21T13:56:17;11.75;;;10.63;;
14599;SDS011;7386;45.586;12.854;2023-08-21T13:58:46;14.45;;;10.70;;
14599;SDS011;7386;45.586;12.854;2023-08-21T14:01:14;12.70;;;11.02;;
14599;SDS011;7386;45.586;12.854;2023-08-21T14:03:43;11.30;;;10.20;;
14599;SDS011;7386;45.586;12.854;2023-08-21T14:06:13;13.38;;;10.23;;
14599;SDS011;7386;45.586;12.854;2023-08-21T14:08:42;12.77;;;10.70;;
14599;SDS011;7386;45.586;12.854;2023-08-21T14:11:10;11.52;;;10.32;;
14599;SDS011;7386;45.586;12.854;2023-08-21T14:13:39;11.15;;;10.02;;
14599;SDS011;7386;45.586;12.854;2023-08-21T14:16:07;10.80;;;9.68;;
14599;SDS011;7386;45.586;12.854;2023-08-21T14:18:36;11.48;;;10.30;;
14599;SDS011;7386;45.586;12.854;2023-08-21T14:21:04;14.07;;;10.63;;
14599;SDS011;7386;45.586;12.854;2023-08-21T14:23:34;12.57;;;10.20;;
14599;SDS011;7386;45.586;12.854;2023-08-21T14:26:04;12.65;;;9.88;;
14599;SDS011;7386;45.586;12.854;2023-08-21T14:28:33;11.38;;;10.27;;
14599;SDS011;7386;45.586;12.854;2023-08-21T14:31:02;11.73;;;10.63;;
14599;SDS011;7386;45.586;12.854;2023-08-21T14:33:30;13.48;;;10.85;;
14599;SDS011;7386;45.586;12.854;2023-08-21T14:35:59;14.35;;;10.32;;
14599;SDS011;7386;45.586;12.854;2023-08-21T14:38:28;13.20;;;10.20;;
14599;SDS011;7386;45.586;12.854;2023-08-21T14:40:58;11.07;;;10.02;;